createdAt,value
2022-12-25T03:10:42.054Z,97274.22
2022-12-25T03:13:14.812Z,97274.31
2022-12-25T03:15:41.599Z,97248.97
2022-12-25T03:18:14.185Z,97264.72
2022-12-25T03:20:41.083Z,97251.06
2022-12-25T03:23:07.711Z,97258.78
2022-12-25T03:25:34.407Z,97286.53
2022-12-25T03:28:01.152Z,97229.22
2022-12-25T03:30:44.258Z,97229.25
2022-12-25T03:33:44.445Z,97235.38
2022-12-25T03:36:18.120Z,97200.84
2022-12-25T03:38:59.686Z,97233.78
2022-12-25T03:41:33.230Z,97235.72
2022-12-25T03:44:10.774Z,97233.78
2022-12-25T03:46:40.414Z,97222.56
2022-12-25T03:49:26.846Z,97229.47
2022-12-25T03:51:54.148Z,97232.66
2022-12-25T03:54:23.232Z,97231.19
2022-12-25T03:56:50.021Z,97231.59
2022-12-25T03:59:23.929Z,97226.22
2022-12-25T04:01:51.388Z,97199.47
2022-12-25T04:04:18.279Z,97215.97
2022-12-25T04:06:44.995Z,97211.28
2022-12-25T04:09:11.711Z,97216.94
2022-12-25T04:11:38.366Z,97219.03
2022-12-25T04:14:04.999Z,97210.50
2022-12-25T04:16:31.780Z,97209.22
2022-12-25T04:18:58.610Z,97214.88
2022-12-25T04:21:25.484Z,97201.28
2022-12-25T04:23:52.285Z,97224.00
2022-12-25T04:26:19.042Z,97191.66
2022-12-25T04:28:45.741Z,97204.53
2022-12-25T04:31:12.555Z,97183.66
2022-12-25T04:33:39.297Z,97237.44
2022-12-25T04:36:06.313Z,97185.88
2022-12-25T04:38:33.123Z,97179.31
2022-12-25T04:41:00.525Z,97200.59
2022-12-25T04:43:27.338Z,97186.63
2022-12-25T04:45:58.172Z,97201.38
2022-12-25T04:48:25.547Z,97192.00
2022-12-25T04:50:52.234Z,97204.38
2022-12-25T04:53:19.113Z,97198.56
2022-12-25T04:55:45.915Z,97194.66
2022-12-25T04:58:12.711Z,97214.97
2022-12-25T05:00:39.363Z,97206.09
2022-12-25T05:03:06.279Z,97218.47
2022-12-25T05:05:33.085Z,97219.69
2022-12-25T05:07:59.862Z,97184.69
2022-12-25T05:10:26.715Z,97187.91
2022-12-25T05:12:53.449Z,97188.47
2022-12-25T05:15:20.136Z,97203.09
2022-12-25T05:17:46.975Z,97204.56
2022-12-25T05:20:13.611Z,97202.47
2022-12-25T05:22:41.938Z,97182.50
2022-12-25T05:25:08.773Z,97208.75
2022-12-25T05:27:35.651Z,97189.28
2022-12-25T05:30:03.518Z,97200.53
2022-12-25T05:32:30.285Z,97225.91
2022-12-25T05:34:57.005Z,97199.97
2022-12-25T05:37:23.780Z,97214.50
2022-12-25T05:39:50.460Z,97197.53
2022-12-25T05:42:17.133Z,97214.66
2022-12-25T05:44:43.855Z,97207.16
2022-12-25T05:47:10.630Z,97189.38
2022-12-25T05:49:37.442Z,97223.63
2022-12-25T05:52:04.300Z,97186.25
2022-12-25T05:54:31.077Z,97184.28
2022-12-25T05:56:57.741Z,97184.69
2022-12-25T05:59:24.388Z,97180.66
2022-12-25T06:01:51.191Z,97181.22
2022-12-25T06:04:17.994Z,97183.91
2022-12-25T06:06:44.827Z,97209.81
2022-12-25T06:09:12.013Z,97189.88
2022-12-25T06:11:39.038Z,97204.31
2022-12-25T06:14:06.120Z,97213.78
2022-12-25T06:16:37.890Z,97212.56
2022-12-25T06:19:05.216Z,97195.69
2022-12-25T06:21:31.879Z,97190.72
2022-12-25T06:24:01.669Z,97215.53
2022-12-25T06:26:28.584Z,97189.44
2022-12-25T06:28:55.375Z,97176.47
2022-12-25T06:31:23.518Z,97221.44
2022-12-25T06:33:50.486Z,97215.03
2022-12-25T06:36:19.180Z,97201.06
2022-12-25T06:38:46.080Z,97189.44
2022-12-25T06:41:14.495Z,97227.50
2022-12-25T06:43:41.311Z,97193.56
2022-12-25T06:46:10.019Z,97210.94
2022-12-25T06:48:37.163Z,97220.88
2022-12-25T06:51:03.967Z,97237.34
2022-12-25T06:53:37.162Z,97225.88
2022-12-25T06:56:11.189Z,97221.94
2022-12-25T06:58:37.858Z,97217.41
2022-12-25T07:01:08.471Z,97224.75
2022-12-25T07:03:35.307Z,97212.44
2022-12-25T07:06:02.106Z,97198.13
2022-12-25T07:08:28.735Z,97220.22
2022-12-25T07:10:55.529Z,97226.00
2022-12-25T07:13:22.195Z,97221.16
2022-12-25T07:15:48.922Z,97219.94
2022-12-25T07:18:15.562Z,97221.78
2022-12-25T07:20:42.209Z,97244.25
2022-12-25T07:23:08.910Z,97253.25
2022-12-25T07:25:37.566Z,97216.78
2022-12-25T07:28:04.552Z,97238.19
2022-12-25T07:30:31.324Z,97202.19
2022-12-25T07:32:57.957Z,97224.34
2022-12-25T07:35:24.668Z,97221.44
2022-12-25T07:37:51.409Z,97213.34
2022-12-25T07:40:18.142Z,97217.63
2022-12-25T07:42:44.892Z,97219.81
2022-12-25T07:45:11.718Z,97224.16
2022-12-25T07:47:38.521Z,97224.44
2022-12-25T07:50:08.606Z,97212.19
2022-12-25T07:52:41.398Z,97215.09
2022-12-25T07:55:10.325Z,97210.06
2022-12-25T07:57:37.131Z,97244.09
2022-12-25T08:00:04.893Z,97213.97
2022-12-25T08:02:31.827Z,97244.72
2022-12-25T08:04:59.169Z,97226.91
2022-12-25T08:07:26.009Z,97220.69
2022-12-25T08:09:52.960Z,97224.91
2022-12-25T08:12:19.641Z,97220.69
2022-12-25T08:14:46.295Z,97255.72
2022-12-25T08:17:13.052Z,97244.66
2022-12-25T08:19:39.942Z,97224.81
2022-12-25T08:22:06.607Z,97237.88
2022-12-25T08:24:33.396Z,97234.28
2022-12-25T08:27:00.236Z,97244.09
2022-12-25T08:29:26.901Z,97230.53
2022-12-25T08:31:53.636Z,97232.81
2022-12-25T08:34:20.427Z,97225.38
2022-12-25T08:36:47.184Z,97232.56
2022-12-25T08:39:13.978Z,97222.94
2022-12-25T08:41:40.658Z,97225.91
2022-12-25T08:44:07.378Z,97209.91
2022-12-25T08:46:34.303Z,97193.03
2022-12-25T08:49:01.127Z,97217.69
2022-12-25T08:51:27.907Z,97217.31
2022-12-25T08:53:57.904Z,97228.50
2022-12-25T08:56:24.588Z,97221.84
2022-12-25T08:58:51.308Z,97214.72
2022-12-25T09:01:18.159Z,97207.66
2022-12-25T09:03:45.109Z,97212.63
2022-12-25T09:06:13.373Z,97195.72
2022-12-25T09:08:46.208Z,97183.47
2022-12-25T09:11:15.726Z,97168.19
2022-12-25T09:13:42.476Z,97215.53
2022-12-25T09:16:10.905Z,97184.69
2022-12-25T09:18:37.813Z,97186.41
2022-12-25T09:21:06.248Z,97168.31
2022-12-25T09:23:33.291Z,97203.28
2022-12-25T09:26:01.077Z,97198.75
2022-12-25T09:28:27.891Z,97191.16
2022-12-25T09:30:54.821Z,97189.03
2022-12-25T09:33:21.712Z,97198.34
2022-12-25T09:35:58.126Z,97174.13
2022-12-25T09:38:25.095Z,97200.09
2022-12-25T09:40:59.660Z,97184.28
2022-12-25T09:43:26.528Z,97186.75
2022-12-25T09:45:53.248Z,97195.97
2022-12-25T09:48:20.115Z,97193.41
2022-12-25T09:50:52.632Z,97160.00
2022-12-25T09:53:21.422Z,97172.44
2022-12-25T09:56:04.713Z,97196.78
2022-12-25T09:58:31.354Z,97217.22
2022-12-25T10:01:05.034Z,97199.41
2022-12-25T10:03:40.882Z,97201.63
2022-12-25T10:06:22.794Z,97185.97
2022-12-25T10:09:00.065Z,97188.22
2022-12-25T10:11:51.511Z,97184.91
2022-12-25T10:14:43.771Z,97179.09
2022-12-25T10:17:24.730Z,97178.22
2022-12-25T10:20:10.526Z,97197.44
2022-12-25T10:22:41.863Z,97205.09
2022-12-25T10:25:18.938Z,97172.28
2022-12-25T10:27:47.366Z,97199.28
2022-12-25T10:30:21.827Z,97202.56
2022-12-25T10:32:48.446Z,97171.72
2022-12-25T10:35:25.662Z,97164.88
2022-12-25T10:38:02.961Z,97145.00
2022-12-25T10:40:38.818Z,97150.19
2022-12-25T10:43:11.600Z,97121.81
2022-12-25T10:45:45.990Z,97161.94
2022-12-25T10:48:25.903Z,97140.69
2022-12-25T10:50:52.653Z,97119.78
2022-12-25T10:53:26.964Z,97107.13
2022-12-25T10:56:01.794Z,97119.72
2022-12-25T10:58:28.722Z,97132.50
2022-12-25T11:01:03.997Z,97120.59
2022-12-25T11:03:54.663Z,97082.63
2022-12-25T11:06:25.486Z,97115.09
2022-12-25T11:09:01.425Z,97080.09
2022-12-25T11:11:28.692Z,97084.75
2022-12-25T11:14:00.310Z,97084.16
2022-12-25T11:16:28.213Z,97093.72
2022-12-25T11:18:55.611Z,97082.00
2022-12-25T11:21:29.799Z,97072.88
2022-12-25T11:24:03.995Z,97060.09
2022-12-25T11:26:35.242Z,97088.44
2022-12-25T11:29:01.950Z,97063.94
2022-12-25T11:31:36.376Z,97081.31
2022-12-25T11:34:36.174Z,97051.53
2022-12-25T11:37:02.924Z,97060.19
2022-12-25T11:39:37.356Z,97070.56
2022-12-25T11:42:06.990Z,97052.03
2022-12-25T11:44:54.220Z,97046.44
2022-12-25T11:47:39.411Z,97032.63
2022-12-25T11:50:33.815Z,97064.25
2022-12-25T11:53:02.007Z,97050.91
2022-12-25T11:55:35.402Z,97070.03
2022-12-25T11:58:14.622Z,97057.75
2022-12-25T12:00:41.631Z,97038.72
2022-12-25T12:03:38.105Z,97024.75
2022-12-25T12:06:07.238Z,97014.66
2022-12-25T12:08:33.943Z,97048.34
2022-12-25T12:11:17.739Z,97036.34
2022-12-25T12:13:59.521Z,97020.81
2022-12-25T12:16:26.213Z,97005.03
2022-12-25T12:18:52.987Z,97040.69
2022-12-25T12:21:22.612Z,97016.81
2022-12-25T12:24:05.023Z,97020.81
2022-12-25T12:26:34.421Z,97002.97
2022-12-25T12:29:01.294Z,96992.31
2022-12-25T12:31:45.691Z,97022.69
2022-12-25T12:34:25.071Z,97024.50
2022-12-25T12:36:54.470Z,96996.16
2022-12-25T12:39:24.116Z,97024.53
2022-12-25T12:41:50.889Z,97037.25
2022-12-25T12:44:17.598Z,97045.13
2022-12-25T12:46:52.486Z,97020.16
2022-12-25T12:49:24.179Z,97016.03
2022-12-25T12:51:51.286Z,97011.06
2022-12-25T12:54:22.900Z,97007.94
2022-12-25T12:57:05.853Z,97006.94
2022-12-25T12:59:42.793Z,96994.91
2022-12-25T13:02:41.637Z,97003.53
2022-12-25T13:05:14.602Z,96981.34
2022-12-25T13:08:06.954Z,96965.16
2022-12-25T13:10:35.665Z,96989.56
2022-12-25T13:13:11.804Z,96973.75
2022-12-25T13:15:38.527Z,96981.63
2022-12-25T13:18:09.960Z,96980.50
2022-12-25T13:20:40.800Z,96983.69
2022-12-25T13:23:25.292Z,96976.63
2022-12-25T13:25:55.997Z,96955.56
2022-12-25T13:28:32.909Z,96959.75
2022-12-25T13:31:07.001Z,96960.63
2022-12-25T13:33:33.831Z,96957.69
2022-12-25T13:36:00.567Z,96979.00
2022-12-25T13:38:27.777Z,96941.63
2022-12-25T13:40:55.459Z,96976.31
2022-12-25T13:43:22.145Z,96957.22
2022-12-25T13:45:54.381Z,96977.19
2022-12-25T13:48:21.145Z,96964.19
2022-12-25T13:50:56.374Z,96983.97
2022-12-25T13:53:23.049Z,96957.16
2022-12-25T13:55:51.422Z,96941.66
2022-12-25T13:58:26.405Z,96957.91
2022-12-25T14:00:54.314Z,96956.31
2022-12-25T14:03:31.117Z,96952.72
2022-12-25T14:05:59.239Z,96948.88
2022-12-25T14:08:27.972Z,96952.09
2022-12-25T14:10:54.779Z,96956.00
2022-12-25T14:13:23.647Z,96953.75
2022-12-25T14:15:50.483Z,96945.63
2022-12-25T14:18:17.889Z,96960.59
2022-12-25T14:21:14.306Z,96980.03
2022-12-25T14:23:45.863Z,96963.22
2022-12-25T14:26:18.833Z,96947.88
2022-12-25T14:28:49.328Z,96918.59
2022-12-25T14:31:16.152Z,96962.94
2022-12-25T14:33:42.859Z,96954.44
2022-12-25T14:36:11.051Z,96972.19
2022-12-25T14:38:37.747Z,96930.03
2022-12-25T14:41:06.086Z,96959.31
2022-12-25T14:43:32.859Z,96954.50
2022-12-25T14:46:01.119Z,96956.97
2022-12-25T14:48:29.952Z,96958.59
2022-12-25T14:51:03.590Z,96967.50
2022-12-25T14:53:37.384Z,96953.09
2022-12-25T14:56:04.422Z,96946.81
2022-12-25T14:58:31.758Z,96958.09
2022-12-25T15:01:00.415Z,96971.19
2022-12-25T15:03:29.316Z,96881.53
2022-12-25T15:06:20.787Z,96930.44
2022-12-25T15:08:57.856Z,96954.28
2022-12-25T15:11:24.523Z,96950.09
2022-12-25T15:13:51.405Z,96945.41
2022-12-25T15:16:22.425Z,96958.69
2022-12-25T15:18:49.601Z,96976.22
2022-12-25T15:21:17.214Z,96966.59
2022-12-25T15:23:44.058Z,96966.03
2022-12-25T15:26:12.893Z,96971.38
2022-12-25T15:28:40.596Z,96937.91
2022-12-25T15:31:21.400Z,96970.44
2022-12-25T15:33:48.847Z,96960.66
2022-12-25T15:36:15.535Z,96961.50
2022-12-25T15:38:42.302Z,96949.81
2022-12-25T15:41:19.457Z,96949.13
2022-12-25T15:43:46.282Z,96940.03
2022-12-25T15:46:12.957Z,96926.72
2022-12-25T15:48:39.787Z,96935.16
2022-12-25T15:51:06.484Z,96943.78
2022-12-25T15:53:33.226Z,96944.59
2022-12-25T15:55:59.862Z,96924.78
2022-12-25T15:58:26.848Z,96889.69
2022-12-25T16:00:53.545Z,96911.97
2022-12-25T16:03:20.235Z,96912.78
2022-12-25T16:05:52.307Z,96901.59
2022-12-25T16:08:19.114Z,96953.03
2022-12-25T16:10:46.096Z,96914.19
2022-12-25T16:13:12.817Z,96895.97
2022-12-25T16:15:39.514Z,96907.50
2022-12-25T16:18:06.771Z,96910.44
2022-12-25T16:20:34.081Z,96900.00
2022-12-25T16:23:00.757Z,96921.16
2022-12-25T16:25:27.472Z,96951.69
2022-12-25T16:27:54.111Z,96934.03
2022-12-25T16:30:20.747Z,96945.28
2022-12-25T16:32:49.349Z,96945.00
2022-12-25T16:35:16.230Z,96952.25
2022-12-25T16:37:43.124Z,96935.09
2022-12-25T16:40:10.116Z,96946.59
2022-12-25T16:42:37.543Z,96935.09
2022-12-25T16:45:04.578Z,96931.09
2022-12-25T16:47:31.385Z,96933.75
2022-12-25T16:49:58.264Z,96947.41
2022-12-25T16:52:26.967Z,96929.19
2022-12-25T16:54:53.960Z,96934.28
2022-12-25T16:57:20.800Z,96917.94
2022-12-25T16:59:47.467Z,96913.38
2022-12-25T17:02:15.762Z,96927.84
2022-12-25T17:04:43.305Z,96930.75
2022-12-25T17:07:10.286Z,96918.44
2022-12-25T17:09:43.702Z,96899.63
2022-12-25T17:12:10.891Z,96924.31
2022-12-25T17:14:37.813Z,96920.06
2022-12-25T17:17:04.667Z,96920.03
2022-12-25T17:19:31.446Z,96921.06
2022-12-25T17:21:58.208Z,96950.00
2022-12-25T17:24:25.317Z,96935.00
2022-12-25T17:26:52.106Z,96941.97
2022-12-25T17:29:22.336Z,96934.97
2022-12-25T17:31:49.911Z,96922.16
2022-12-25T17:34:17.151Z,96918.66
2022-12-25T17:36:44.113Z,96914.69
2022-12-25T17:39:10.948Z,96888.97
2022-12-25T17:41:37.615Z,96910.63
2022-12-25T17:44:04.531Z,96916.25
2022-12-25T17:46:31.274Z,96917.25
2022-12-25T17:48:59.070Z,96911.84
2022-12-25T17:51:26.461Z,96903.59
2022-12-25T17:53:54.903Z,96906.50
2022-12-25T17:56:22.312Z,96915.00
2022-12-25T17:58:53.538Z,96902.59
2022-12-25T18:01:20.413Z,96883.38
2022-12-25T18:03:47.447Z,96884.00
2022-12-25T18:06:17.349Z,96920.84
2022-12-25T18:08:44.608Z,96906.50
2022-12-25T18:11:15.149Z,96903.03
2022-12-25T18:13:43.102Z,96868.03
2022-12-25T18:16:09.900Z,96880.31
2022-12-25T18:18:36.996Z,96913.69
2022-12-25T18:21:04.052Z,96909.34
2022-12-25T18:23:30.795Z,96908.03
2022-12-25T18:26:01.417Z,96898.38
2022-12-25T18:28:28.352Z,96890.94
2022-12-25T18:30:55.302Z,96919.31
2022-12-25T18:33:22.237Z,96882.06
2022-12-25T18:35:48.940Z,96905.13
2022-12-25T18:38:15.690Z,96916.59
2022-12-25T18:40:47.101Z,96903.84
2022-12-25T18:43:53.770Z,96935.38
2022-12-25T18:46:32.662Z,96916.25
2022-12-25T18:49:01.897Z,96909.59
2022-12-25T18:51:34.924Z,96925.16
2022-12-25T18:54:08.109Z,96950.59
2022-12-25T18:56:40.788Z,96929.44
2022-12-25T18:59:09.602Z,96918.50
2022-12-25T19:01:36.515Z,96902.22
2022-12-25T19:04:05.570Z,96939.34
2022-12-25T19:06:35.601Z,96912.63
2022-12-25T19:09:06.052Z,96908.81
2022-12-25T19:11:46.160Z,96910.75
2022-12-25T19:14:21.334Z,96917.84
2022-12-25T19:17:22.556Z,96935.84
2022-12-25T19:20:04.193Z,96891.94
2022-12-25T19:22:35.471Z,96890.88
2022-12-25T19:25:11.428Z,96893.47
2022-12-25T19:27:48.019Z,96895.78
2022-12-25T19:30:14.765Z,96894.81
2022-12-25T19:32:41.580Z,96926.16
2022-12-25T19:35:08.311Z,96910.81
2022-12-25T19:37:35.108Z,96942.31
2022-12-25T19:40:02.321Z,96905.66
2022-12-25T19:42:29.033Z,96910.50
2022-12-25T19:44:55.732Z,96912.59
2022-12-25T19:47:22.406Z,96935.16
2022-12-25T19:49:52.968Z,96910.75
2022-12-25T19:52:20.521Z,96937.53
2022-12-25T19:54:50.750Z,96924.91
2022-12-25T19:57:17.843Z,96922.56
2022-12-25T19:59:44.534Z,96925.31
2022-12-25T20:02:11.501Z,96903.59
2022-12-25T20:04:38.329Z,96904.25
2022-12-25T20:07:05.076Z,96914.06
2022-12-25T20:09:31.925Z,96926.63
2022-12-25T20:11:58.801Z,96926.88
2022-12-25T20:14:25.640Z,96901.75
2022-12-25T20:16:52.392Z,96896.91
2022-12-25T20:19:19.131Z,96935.03
2022-12-25T20:21:45.914Z,96917.94
2022-12-25T20:24:12.801Z,96930.47
2022-12-25T20:26:39.767Z,96915.03
2022-12-25T20:29:06.585Z,96924.84
2022-12-25T20:31:34.148Z,96912.34
2022-12-25T20:34:04.973Z,96943.09
2022-12-25T20:36:36.849Z,96932.75
2022-12-25T20:39:05.738Z,96927.09
2022-12-25T20:41:32.424Z,96961.00
2022-12-25T20:43:59.184Z,96921.47
2022-12-25T20:46:26.819Z,96940.00
2022-12-25T20:48:53.714Z,96921.63
2022-12-25T20:51:25.010Z,96904.00
2022-12-25T20:53:52.013Z,96913.91
2022-12-25T20:56:21.538Z,96920.69
2022-12-25T20:59:10.933Z,96906.28
2022-12-25T21:01:56.061Z,96904.97
2022-12-25T21:04:30.925Z,96913.09
2022-12-25T21:07:00.143Z,96906.34
2022-12-25T21:09:33.031Z,96918.44
2022-12-25T21:11:59.791Z,96919.78
2022-12-25T21:14:26.464Z,96894.38
2022-12-25T21:16:53.295Z,96912.78
2022-12-25T21:19:20.097Z,96923.69
2022-12-25T21:21:50.036Z,96910.53
2022-12-25T21:24:17.113Z,96914.88
2022-12-25T21:26:48.016Z,96941.16
2022-12-25T21:29:15.124Z,96904.59
2022-12-25T21:31:41.810Z,96926.25
2022-12-25T21:34:08.538Z,96943.19
2022-12-25T21:36:35.330Z,96912.97
2022-12-25T21:39:05.062Z,96927.38
2022-12-25T21:41:32.526Z,96952.47
2022-12-25T21:43:59.709Z,96956.25
2022-12-25T21:46:26.990Z,96963.44
2022-12-25T21:48:53.889Z,96954.94
2022-12-25T21:51:22.988Z,96925.34
2022-12-25T21:53:49.911Z,96967.53
2022-12-25T21:56:16.761Z,96942.72
2022-12-25T21:58:43.619Z,96994.91
2022-12-25T22:01:10.606Z,96998.28
2022-12-25T22:03:37.409Z,97024.19
2022-12-25T22:06:04.391Z,96995.94
2022-12-25T22:08:31.865Z,97005.16
2022-12-25T22:10:58.945Z,97004.59
2022-12-25T22:13:25.663Z,96994.00
2022-12-25T22:15:52.549Z,97016.34
2022-12-25T22:18:19.411Z,96978.84
2022-12-25T22:20:46.169Z,96999.25
2022-12-25T22:23:12.935Z,96994.97
2022-12-25T22:25:39.689Z,96996.50
2022-12-25T22:28:06.404Z,96945.72
2022-12-25T22:30:33.100Z,96974.88
2022-12-25T22:32:59.749Z,96989.19
2022-12-25T22:35:26.484Z,96987.00
2022-12-25T22:37:53.380Z,97010.78
2022-12-25T22:40:20.363Z,96998.09
2022-12-25T22:42:47.086Z,96986.06
2022-12-25T22:45:14.039Z,96994.44
2022-12-25T22:47:41.028Z,97009.91
2022-12-25T22:50:08.135Z,96999.28
2022-12-25T22:52:34.928Z,97018.03
2022-12-25T22:55:01.702Z,96988.66
2022-12-25T22:57:28.415Z,96987.66
2022-12-25T22:59:55.100Z,96988.00
2022-12-25T23:02:22.262Z,97037.63
2022-12-25T23:04:49.194Z,97013.44
2022-12-25T23:07:16.106Z,96986.06
2022-12-25T23:09:43.749Z,97002.06
2022-12-25T23:12:10.676Z,97003.75
2022-12-25T23:14:37.326Z,96995.56
2022-12-25T23:17:04.414Z,97020.81
2022-12-25T23:19:31.202Z,97000.50
2022-12-25T23:21:58.056Z,97001.81
2022-12-25T23:24:24.804Z,96972.16
2022-12-25T23:26:51.550Z,96999.06
2022-12-25T23:29:18.361Z,97010.59
2022-12-25T23:31:45.281Z,97022.69
2022-12-25T23:34:12.127Z,97002.06
2022-12-25T23:36:38.936Z,97004.94
2022-12-25T23:39:10.129Z,97015.09
2022-12-25T23:41:41.433Z,97006.72
2022-12-25T23:44:08.906Z,97000.31
2022-12-25T23:46:35.808Z,96998.78
2022-12-25T23:49:02.563Z,97002.06
2022-12-25T23:51:29.418Z,97005.47
2022-12-25T23:53:56.283Z,96998.91
2022-12-25T23:56:22.954Z,97003.59
2022-12-25T23:58:49.864Z,97004.34
